Tonasket, WA (98855)

9:44 AM PDT on October 31, 2014 (GMT -0700)
Mt. Hull | Change Station
CLOSE
Current Station
Personal Weather Station
Location: Tonasket, WA
Elevation: 2995 ft
Nearby Weather Stations

Elev 2995 ft 48.83 °N, 119.33 °W | Updated 4 minutes ago

Overcast
Overcast
45.2 °F
Feels Like 45 °F
N
0.0
Wind Variable Wind from SSW
Gusts 0.0 mph

Today
High -- | Low -- °F
--% Chance of Precip.
Yesterday
High -- | Low -- °F
Precip. -- in
7:42 AM 5:38 PM
First Quarter, 57% visible
Pressure 29.71 in
Visibility 1.8 miles
Clouds Mostly Cloudy 200 ft
Overcast 3300 ft
Windchill 45 °F
Dew Point 45 °F
Humidity 98%
Rainfall 0.33 in
Snow Depth Not available.
UV 0.0 out of 12
Pollen 1.60 out of 12
Air Quality Not available.
Flu Activity Not available.
SPECI KOMK 311636Z AUTO 00000KT 1 3/4SM BR BKN002 OVC033 09/09 A2971 RMK AO2 RAE34 P0001 T00940089

More Conditions Fewer Conditions

Pressure 29.71 in
Visibility 1.8 miles
Clouds Mostly Cloudy 200 ft
Overcast 3300 ft
Windchill 45 °F
Dew Point 45 °F
Humidity 98%
Rainfall 0.33 in
Snow Depth Not available.
UV 0.0 out of 12
Pollen 1.60 out of 12
Air Quality Not available.
Flu Activity Not available.
SPECI KOMK 311636Z AUTO 00000KT 1 3/4SM BR BKN002 OVC033 09/09 A2971 RMK AO2 RAE34 P0001 T00940089

More Conditions Fewer Conditions

10-Day Weather Forecast

Almanac

Astronomy

Oct. 31, 2014 Rise Set
Actual Time
Civil Twilight
Nautical Twilight
Astronomical Twilight
Moon
Length of Visible Light
Length of Day
Tomorrow will be .
, % of the Moon is Illuminated

Today's Extremes

State Highs State Lows

Community

WunderPhotos

Upload Photos

1,766,657 photos uploaded!

WunderBlogs® & News

Nearby

Air Quality

  Air Quality AQ Index Pollutant
Not available.

Snow Depth

Station Depth Elevation

Earthquake Activity

City Distance Mag. Time & Date
Minimum magnitude displayed is 2.5.

Coastal Water Temperatures

Place Temperature

Nearby Weather Stations